createdAt,value
2024-03-24T00:00:13.134Z,85.6724
2024-03-24T00:01:16.161Z,86.0397
2024-03-24T00:02:19.195Z,85.1403
2024-03-24T00:03:22.215Z,85.5637
2024-03-24T00:04:25.288Z,84.7406
2024-03-24T00:05:28.323Z,84.9730
2024-03-24T00:06:31.367Z,84.7985
2024-03-24T00:07:34.396Z,84.4642
2024-03-24T00:08:37.442Z,84.4433
2024-03-24T00:09:40.495Z,85.1069
2024-03-24T00:10:43.533Z,84.1872
2024-03-24T00:11:46.574Z,83.6838
2024-03-24T00:12:49.599Z,83.9215
2024-03-24T00:13:52.652Z,84.2890
2024-03-24T00:14:55.686Z,84.0851
2024-03-24T00:15:59.066Z,84.2348
2024-03-24T00:17:02.121Z,83.8574
2024-03-24T00:18:05.126Z,83.1571
2024-03-24T00:19:08.219Z,83.8911
2024-03-24T00:20:11.252Z,83.5824
2024-03-24T00:21:14.261Z,84.6054
2024-03-24T00:22:17.550Z,83.3843
2024-03-24T00:23:20.590Z,83.3612
2024-03-24T00:24:23.728Z,82.3635
2024-03-24T00:25:26.734Z,82.5585
2024-03-24T00:26:29.769Z,82.2506
2024-03-24T00:27:32.745Z,82.1130
2024-03-24T00:28:35.921Z,83.6053
2024-03-24T00:29:38.939Z,83.3792
2024-03-24T00:30:41.900Z,83.8552
2024-03-24T00:31:44.983Z,83.1429
2024-03-24T00:32:48.018Z,83.2447
2024-03-24T00:33:51.040Z,82.7463
2024-03-24T00:34:54.410Z,82.4674
2024-03-24T00:35:57.608Z,82.6913
2024-03-24T00:37:00.797Z,82.6770
2024-03-24T00:38:03.825Z,83.8450
2024-03-24T00:39:06.883Z,83.2020
2024-03-24T00:40:09.918Z,83.1793
2024-03-24T00:41:12.909Z,84.0644
2024-03-24T00:42:16.004Z,83.1633
2024-03-24T00:43:19.058Z,83.7291
2024-03-24T00:44:22.099Z,83.5078
2024-03-24T00:45:25.146Z,84.1138
2024-03-24T00:46:28.180Z,84.0197
2024-03-24T00:47:31.244Z,84.8401
2024-03-24T00:48:34.247Z,85.4884
2024-03-24T00:49:37.244Z,84.1987
2024-03-24T00:50:40.347Z,84.1909
2024-03-24T00:51:43.362Z,84.1813
2024-03-24T00:52:46.669Z,84.4987
2024-03-24T00:53:49.766Z,84.5287
2024-03-24T00:54:52.787Z,84.5803
2024-03-24T00:55:55.844Z,84.1732
2024-03-24T00:56:58.901Z,84.5293
2024-03-24T00:58:02.275Z,84.9862
2024-03-24T00:59:05.286Z,85.6539
2024-03-24T01:00:08.324Z,85.7026
2024-03-24T01:01:11.391Z,85.8348
2024-03-24T01:02:14.355Z,85.9356
2024-03-24T01:03:17.451Z,85.9221
2024-03-24T01:04:20.507Z,85.7297
2024-03-24T01:05:23.556Z,86.3689
2024-03-24T01:06:26.601Z,85.9253
2024-03-24T01:07:29.676Z,86.5746
2024-03-24T01:08:32.724Z,86.3622
2024-03-24T01:09:35.712Z,86.3760
2024-03-24T01:10:38.752Z,86.3431
2024-03-24T01:11:41.900Z,85.9758
2024-03-24T01:12:44.883Z,86.4084
2024-03-24T01:13:47.900Z,87.0647
2024-03-24T01:14:50.904Z,86.9019
2024-03-24T01:15:53.930Z,87.2062
2024-03-24T01:16:56.893Z,87.5417
2024-03-24T01:18:00.015Z,87.4650
2024-03-24T01:19:03.094Z,86.7789
2024-03-24T01:20:06.073Z,87.2196
2024-03-24T01:21:09.150Z,87.4650
2024-03-24T01:22:12.202Z,87.8120
2024-03-24T01:23:15.198Z,87.7011
2024-03-24T01:24:18.250Z,87.8944
2024-03-24T01:25:21.292Z,87.7028
2024-03-24T01:26:24.392Z,87.7130
2024-03-24T01:27:27.422Z,88.2226
2024-03-24T01:28:30.542Z,88.1532
2024-03-24T01:29:33.532Z,87.9956
2024-03-24T01:30:36.581Z,88.3009
2024-03-24T01:31:39.652Z,88.2066
2024-03-24T01:32:42.652Z,87.8367
2024-03-24T01:33:45.673Z,87.9492
2024-03-24T01:34:48.967Z,88.3643
2024-03-24T01:35:52.045Z,88.5892
2024-03-24T01:36:55.061Z,89.1493
2024-03-24T01:37:58.062Z,89.6293
2024-03-24T01:39:01.132Z,89.6266
2024-03-24T01:40:04.167Z,89.7494
2024-03-24T01:41:07.189Z,89.6930
2024-03-24T01:42:10.196Z,89.1353
2024-03-24T01:43:13.298Z,89.3257
2024-03-24T01:44:16.342Z,90.1015
2024-03-24T01:45:19.353Z,89.3617
2024-03-24T01:46:22.462Z,89.8099
2024-03-24T01:47:25.486Z,89.9853
2024-03-24T01:48:28.493Z,90.3359
2024-03-24T01:49:31.675Z,90.3848
2024-03-24T01:50:34.703Z,90.4590
2024-03-24T01:51:37.684Z,90.7090
2024-03-24T01:52:40.715Z,91.0532
2024-03-24T01:53:43.684Z,90.9335
2024-03-24T01:54:46.746Z,90.8411
2024-03-24T01:55:49.763Z,91.2895
2024-03-24T01:56:52.821Z,91.4581
2024-03-24T01:57:55.867Z,91.5845
2024-03-24T01:58:58.915Z,91.9337
2024-03-24T02:00:01.915Z,91.7690
2024-03-24T02:01:04.936Z,91.5401
2024-03-24T02:02:07.946Z,91.5648
2024-03-24T02:03:11.023Z,91.5618
2024-03-24T02:04:14.132Z,91.6810
2024-03-24T02:05:17.088Z,91.6957
2024-03-24T02:06:20.131Z,92.0320
2024-03-24T02:07:23.166Z,92.4849
2024-03-24T02:08:26.190Z,92.1559
2024-03-24T02:09:29.234Z,92.0980
2024-03-24T02:10:32.275Z,92.4470
2024-03-24T02:11:35.318Z,92.6183
2024-03-24T02:12:38.312Z,92.6276
2024-03-24T02:13:41.426Z,93.0912
2024-03-24T02:14:44.441Z,93.1083
2024-03-24T02:15:47.467Z,92.7503
2024-03-24T02:16:50.535Z,92.5950
2024-03-24T02:17:57.815Z,92.8684
2024-03-24T02:18:55.646Z,93.0070
2024-03-24T02:19:58.644Z,93.0558
2024-03-24T02:21:01.726Z,93.1118
2024-03-24T02:22:04.755Z,93.1531
2024-03-24T02:23:07.914Z,93.3106
2024-03-24T02:24:10.907Z,93.5559
2024-03-24T02:25:13.920Z,93.5259
2024-03-24T02:26:17.267Z,93.7301
2024-03-24T02:27:20.344Z,93.7560
2024-03-24T02:28:23.384Z,93.7563
2024-03-24T02:29:26.674Z,93.8026
2024-03-24T02:30:26.588Z,93.7529
2024-03-24T02:31:29.577Z,93.8244
2024-03-24T02:32:32.669Z,93.8731
2024-03-24T02:33:35.703Z,94.1065
2024-03-24T02:34:38.723Z,94.2892
2024-03-24T02:35:41.726Z,94.3728
2024-03-24T02:36:44.753Z,94.4332
2024-03-24T02:37:47.799Z,94.5047
2024-03-24T02:38:50.844Z,94.6673
2024-03-24T02:39:53.952Z,94.7564
2024-03-24T02:40:56.985Z,94.8248
2024-03-24T02:42:00.072Z,94.8895
2024-03-24T02:43:03.109Z,94.9844
2024-03-24T02:44:06.149Z,94.9719
2024-03-24T02:45:09.244Z,95.0282
2024-03-24T02:46:12.273Z,94.9805
2024-03-24T02:47:15.488Z,94.9696
2024-03-24T02:48:18.532Z,95.0985
2024-03-24T02:49:21.554Z,95.2078
2024-03-24T02:50:24.586Z,95.2518
2024-03-24T02:51:27.906Z,95.2038
2024-03-24T02:52:30.993Z,95.2149
2024-03-24T02:53:34.068Z,95.2793
2024-03-24T02:54:37.136Z,95.2725
2024-03-24T02:55:40.136Z,95.2224
2024-03-24T02:56:43.154Z,95.0964
2024-03-24T02:57:46.353Z,95.0598
2024-03-24T02:58:49.351Z,95.1286
2024-03-24T02:59:52.617Z,95.0448
2024-03-24T03:00:55.624Z,95.0725
2024-03-24T03:01:58.677Z,95.1975
2024-03-24T03:03:01.712Z,95.3000
2024-03-24T03:04:04.708Z,95.2169
2024-03-24T03:05:07.811Z,95.0785
2024-03-24T03:06:11.170Z,95.1220
2024-03-24T03:07:14.174Z,95.0110
2024-03-24T03:08:17.195Z,94.8966
2024-03-24T03:09:20.285Z,94.8419
2024-03-24T03:10:23.324Z,94.9667
2024-03-24T03:11:26.341Z,95.0200
2024-03-24T03:12:29.421Z,95.0913
2024-03-24T03:13:32.409Z,95.1857
2024-03-24T03:14:35.478Z,95.1919
2024-03-24T03:15:38.687Z,95.0016
2024-03-24T03:16:41.692Z,94.6047
2024-03-24T03:17:44.673Z,94.2316
2024-03-24T03:18:47.963Z,94.1746
2024-03-24T03:19:50.990Z,94.2368
2024-03-24T03:20:54.043Z,94.2629
2024-03-24T03:21:57.042Z,94.3706
2024-03-24T03:23:00.144Z,94.4475
2024-03-24T03:24:03.159Z,94.5724
2024-03-24T03:25:06.205Z,94.4666
2024-03-24T03:26:09.240Z,94.3609
2024-03-24T03:27:12.229Z,94.2362
2024-03-24T03:28:15.333Z,94.3523
2024-03-24T03:29:18.364Z,94.4150
2024-03-24T03:30:21.443Z,94.4962
2024-03-24T03:31:24.443Z,94.6159
2024-03-24T03:32:27.498Z,94.7270
2024-03-24T03:33:30.555Z,94.7942
2024-03-24T03:34:33.565Z,94.7995
2024-03-24T03:35:36.604Z,94.8737
2024-03-24T03:36:39.640Z,95.0013
2024-03-24T03:37:42.735Z,95.1779
2024-03-24T03:38:45.818Z,95.4006
2024-03-24T03:39:48.882Z,95.5715
2024-03-24T03:40:51.901Z,95.6492
2024-03-24T03:41:55.166Z,95.7799
2024-03-24T03:42:58.189Z,95.7726
2024-03-24T03:44:01.255Z,95.6868
2024-03-24T03:45:04.281Z,95.6445
2024-03-24T03:46:07.320Z,95.6438
2024-03-24T03:47:10.306Z,95.6893
2024-03-24T03:48:13.398Z,95.7504
2024-03-24T03:49:16.523Z,95.8170
2024-03-24T03:50:19.574Z,95.8769
2024-03-24T03:51:22.618Z,95.9213
2024-03-24T03:52:25.668Z,96.0027
2024-03-24T03:53:28.686Z,96.1179
2024-03-24T03:54:31.731Z,96.1916
2024-03-24T03:55:34.750Z,96.2232
2024-03-24T03:56:37.861Z,96.2481
2024-03-24T03:57:40.867Z,96.2701
2024-03-24T03:58:43.891Z,96.2537
2024-03-24T03:59:46.987Z,96.1968
2024-03-24T04:00:49.949Z,96.1717
2024-03-24T04:01:52.931Z,96.1908
2024-03-24T04:02:55.972Z,96.1942
2024-03-24T04:03:58.942Z,96.1678
2024-03-24T04:05:02.044Z,96.0821
2024-03-24T04:06:05.067Z,95.9468
2024-03-24T04:07:08.119Z,95.8940
2024-03-24T04:08:11.186Z,95.8552
2024-03-24T04:09:14.213Z,95.8284
2024-03-24T04:10:17.395Z,95.8216
2024-03-24T04:11:20.420Z,95.8261
2024-03-24T04:12:23.472Z,95.8715
2024-03-24T04:13:26.775Z,95.8908
2024-03-24T04:14:29.795Z,95.8839
2024-03-24T04:15:32.781Z,95.8304
2024-03-24T04:16:35.970Z,95.7089
2024-03-24T04:17:38.953Z,95.5944
2024-03-24T04:18:42.023Z,95.4454
2024-03-24T04:19:45.028Z,95.4070
2024-03-24T04:20:48.294Z,95.4241
2024-03-24T04:21:51.343Z,95.2456
2024-03-24T04:22:54.373Z,95.1136
2024-03-24T04:23:57.423Z,94.9890
2024-03-24T04:25:00.528Z,94.9419
2024-03-24T04:26:03.525Z,94.9483
2024-03-24T04:27:06.544Z,94.9300
2024-03-24T04:28:09.557Z,94.9093
2024-03-24T04:29:12.562Z,94.9101
2024-03-24T04:30:15.682Z,95.0686
2024-03-24T04:31:18.689Z,95.1092
2024-03-24T04:32:21.745Z,94.9817
2024-03-24T04:33:24.755Z,94.9102
2024-03-24T04:34:27.766Z,94.9299
2024-03-24T04:35:30.857Z,94.9549
2024-03-24T04:36:34.043Z,94.9894
2024-03-24T04:37:37.046Z,95.0757
2024-03-24T04:38:40.059Z,95.2389
2024-03-24T04:39:43.326Z,95.3841
2024-03-24T04:40:46.396Z,95.4886
2024-03-24T04:41:49.475Z,95.4431
2024-03-24T04:42:52.643Z,95.4283
2024-03-24T04:43:55.782Z,95.4778
2024-03-24T04:44:58.843Z,95.5201
2024-03-24T04:46:01.894Z,95.4789
2024-03-24T04:47:04.919Z,95.5428
2024-03-24T04:48:07.955Z,95.6168
2024-03-24T04:49:11.016Z,95.6971
2024-03-24T04:50:14.042Z,95.7635
2024-03-24T04:51:17.143Z,95.8951
2024-03-24T04:52:20.184Z,95.9846
2024-03-24T04:53:23.252Z,96.0811
2024-03-24T04:54:26.515Z,96.1429
2024-03-24T04:55:29.586Z,96.1633
2024-03-24T04:56:32.612Z,96.1703
2024-03-24T04:57:35.632Z,96.1881
2024-03-24T04:58:38.691Z,96.2314
2024-03-24T04:59:41.784Z,96.2905
2024-03-24T05:00:44.868Z,96.3345
2024-03-24T05:01:47.884Z,96.3034
2024-03-24T05:02:50.943Z,96.2561
2024-03-24T05:03:53.961Z,96.1039
2024-03-24T05:04:56.956Z,95.9644
2024-03-24T05:06:00.049Z,95.9992
2024-03-24T05:07:03.088Z,96.0633
2024-03-24T05:08:06.114Z,96.0740
2024-03-24T05:09:09.123Z,96.1735
2024-03-24T05:10:12.219Z,96.3011
2024-03-24T05:11:15.203Z,96.3561
2024-03-24T05:12:18.351Z,96.4292
2024-03-24T05:13:21.343Z,96.4892
2024-03-24T05:14:24.387Z,96.5116
2024-03-24T05:15:27.455Z,96.5342
2024-03-24T05:16:30.489Z,96.5718
2024-03-24T05:17:33.631Z,96.5990
2024-03-24T05:18:36.800Z,96.6063
2024-03-24T05:19:39.834Z,96.6139
2024-03-24T05:20:42.869Z,96.5878
2024-03-24T05:21:45.935Z,96.5950
2024-03-24T05:22:49.036Z,96.6475
2024-03-24T05:23:52.104Z,96.6746
2024-03-24T05:24:55.362Z,96.6963
2024-03-24T05:25:58.365Z,96.7425
2024-03-24T05:27:01.465Z,96.7738
2024-03-24T05:28:04.543Z,96.8377
2024-03-24T05:29:07.572Z,96.8616
2024-03-24T05:30:10.643Z,96.8566
2024-03-24T05:31:13.919Z,96.8538
2024-03-24T05:32:16.952Z,96.8524
2024-03-24T05:33:19.992Z,96.8404
2024-03-24T05:34:23.032Z,96.8299
2024-03-24T05:35:26.068Z,96.8301
2024-03-24T05:36:28.561Z,96.8383
2024-03-24T05:37:30.997Z,96.8384
2024-03-24T05:38:33.593Z,96.8305
2024-03-24T05:39:36.049Z,96.8270
2024-03-24T05:40:38.533Z,96.8152
2024-03-24T05:41:41.109Z,96.8199
2024-03-24T05:42:43.624Z,96.8443
2024-03-24T05:43:46.237Z,96.8505
2024-03-24T05:44:48.727Z,96.8375
2024-03-24T05:45:51.191Z,96.8350
2024-03-24T05:46:53.771Z,96.8268
2024-03-24T05:47:56.225Z,96.8296
2024-03-24T05:48:58.701Z,96.8223
2024-03-24T05:50:01.198Z,96.8432
2024-03-24T05:51:03.699Z,96.8644
2024-03-24T05:52:06.161Z,96.9005
2024-03-24T05:53:08.808Z,96.9251
2024-03-24T05:54:11.315Z,96.9004
2024-03-24T05:55:13.756Z,96.8324
2024-03-24T05:56:16.307Z,96.7754
2024-03-24T05:57:18.792Z,96.7638
2024-03-24T05:58:21.255Z,96.6867
2024-03-24T05:59:23.896Z,96.6493
2024-03-24T06:00:26.505Z,96.6232
2024-03-24T06:01:28.922Z,96.5932
2024-03-24T06:02:31.360Z,96.5695
2024-03-24T06:03:34.087Z,96.5234
2024-03-24T06:04:36.482Z,96.3757
2024-03-24T06:05:38.900Z,96.2761
2024-03-24T06:06:41.353Z,96.1879
2024-03-24T06:07:43.811Z,96.0584
2024-03-24T06:08:46.375Z,95.8829
2024-03-24T06:09:48.791Z,95.6185
2024-03-24T06:10:51.514Z,95.3526
2024-03-24T06:11:54.033Z,95.2055
2024-03-24T06:12:56.440Z,95.1650
2024-03-24T06:13:58.960Z,95.2338
2024-03-24T06:15:01.382Z,95.2171
2024-03-24T06:16:03.832Z,94.8346
2024-03-24T06:17:06.257Z,94.5512
2024-03-24T06:18:08.945Z,94.4925
2024-03-24T06:19:14.213Z,94.4973
2024-03-24T06:20:13.735Z,94.6247
2024-03-24T06:21:16.157Z,94.5919
2024-03-24T06:22:18.574Z,94.4081
2024-03-24T06:23:21.022Z,94.4923
2024-03-24T06:24:23.461Z,94.1613
2024-03-24T06:25:25.911Z,93.8042
2024-03-24T06:26:28.474Z,93.8309
2024-03-24T06:27:30.925Z,93.3806
2024-03-24T06:28:33.603Z,93.2405
2024-03-24T06:29:36.047Z,93.0734
2024-03-24T06:30:38.667Z,92.4760
2024-03-24T06:31:43.842Z,92.3472
2024-03-24T06:32:44.808Z,91.9710
2024-03-24T06:33:47.277Z,91.7595
2024-03-24T06:34:49.713Z,91.9211
2024-03-24T06:35:52.311Z,91.5402
2024-03-24T06:36:54.718Z,90.8410
2024-03-24T06:37:57.179Z,91.1193
2024-03-24T06:38:59.604Z,91.3063
2024-03-24T06:40:02.031Z,91.4303
2024-03-24T06:41:04.479Z,91.4921
2024-03-24T06:42:07.027Z,90.9594
2024-03-24T06:43:09.521Z,90.9969
2024-03-24T06:44:11.914Z,90.6720
2024-03-24T06:45:14.382Z,90.6856
2024-03-24T06:46:16.958Z,90.5742
2024-03-24T06:47:19.398Z,90.2651
2024-03-24T06:48:21.865Z,89.9765
2024-03-24T06:49:24.303Z,90.0548
2024-03-24T06:50:26.874Z,89.7670
2024-03-24T06:51:29.312Z,89.2227
2024-03-24T06:52:32.040Z,89.6135
2024-03-24T06:53:34.800Z,89.8779
2024-03-24T06:54:37.370Z,89.8039
2024-03-24T06:55:39.794Z,89.8187
2024-03-24T06:56:42.554Z,90.6264
2024-03-24T06:57:45.284Z,90.0918
2024-03-24T06:58:47.745Z,89.9443
2024-03-24T06:59:50.182Z,90.1572
2024-03-24T07:00:52.618Z,90.3521
2024-03-24T07:01:55.200Z,89.9553
2024-03-24T07:02:57.638Z,89.9496
2024-03-24T07:04:00.299Z,90.4270
2024-03-24T07:05:02.760Z,90.7201
2024-03-24T07:06:05.429Z,90.6399
2024-03-24T07:07:07.842Z,91.0389
2024-03-24T07:08:10.279Z,90.8724
2024-03-24T07:09:12.742Z,90.7620
2024-03-24T07:10:15.183Z,89.9290
2024-03-24T07:11:17.762Z,89.8166
2024-03-24T07:12:20.189Z,90.5886
2024-03-24T07:13:22.830Z,90.1368
2024-03-24T07:14:25.272Z,90.0250
2024-03-24T07:15:27.741Z,89.3501
2024-03-24T07:16:30.199Z,89.3074
2024-03-24T07:17:32.621Z,89.1630
2024-03-24T07:18:35.041Z,88.5297
2024-03-24T07:19:37.601Z,89.0135
2024-03-24T07:20:40.040Z,88.1356
2024-03-24T07:21:42.448Z,87.4860
2024-03-24T07:22:44.940Z,87.6626
2024-03-24T07:23:47.385Z,86.6241
2024-03-24T07:24:49.930Z,86.7710
2024-03-24T07:25:52.632Z,86.6767
2024-03-24T07:26:55.133Z,85.4962
2024-03-24T07:27:58.069Z,85.8187
2024-03-24T07:29:01.124Z,85.8758
2024-03-24T07:30:04.161Z,86.1693
2024-03-24T07:31:07.180Z,86.2957
2024-03-24T07:32:10.231Z,86.4248
2024-03-24T07:33:13.410Z,86.8260
2024-03-24T07:34:16.434Z,86.1015
2024-03-24T07:35:19.486Z,86.8196
2024-03-24T07:36:22.509Z,86.9261
2024-03-24T07:37:25.520Z,86.8176
2024-03-24T07:38:28.543Z,86.8098
2024-03-24T07:39:31.576Z,86.2549
2024-03-24T07:40:34.871Z,84.8306
2024-03-24T07:41:37.914Z,84.9859
2024-03-24T07:42:43.515Z,85.2095
2024-03-24T07:43:44.061Z,83.9355
2024-03-24T07:44:47.111Z,83.8871
2024-03-24T07:45:50.127Z,84.3293
2024-03-24T07:46:53.226Z,84.6140
2024-03-24T07:47:56.258Z,83.9303
2024-03-24T07:48:59.298Z,84.5829
2024-03-24T07:50:02.335Z,84.8176
2024-03-24T07:51:05.342Z,83.9588
2024-03-24T07:52:08.361Z,83.6884
2024-03-24T07:53:11.390Z,84.7189
2024-03-24T07:54:14.526Z,84.7562
2024-03-24T07:55:17.584Z,83.6322
2024-03-24T07:56:20.557Z,83.8921
2024-03-24T07:57:23.831Z,83.2931
2024-03-24T07:58:27.053Z,83.6180
2024-03-24T07:59:30.198Z,84.4238
2024-03-24T08:00:33.253Z,84.8377
2024-03-24T08:01:36.305Z,83.7981
2024-03-24T08:02:39.387Z,83.5375
2024-03-24T08:03:42.381Z,84.0876
2024-03-24T08:04:45.471Z,84.5476
2024-03-24T08:05:48.548Z,83.7141
2024-03-24T08:06:51.630Z,82.5890
2024-03-24T08:07:56.440Z,82.2883
2024-03-24T08:08:56.422Z,81.8029
2024-03-24T08:09:59.651Z,80.0232
2024-03-24T08:11:02.703Z,78.9113
2024-03-24T08:12:05.831Z,78.7844
2024-03-24T08:13:08.841Z,79.7929
2024-03-24T08:14:11.936Z,79.3647
2024-03-24T08:15:14.953Z,78.4134
2024-03-24T08:16:17.965Z,78.1260
2024-03-24T08:17:21.267Z,78.1763
2024-03-24T08:18:24.301Z,78.3955
2024-03-24T08:19:27.341Z,80.4743
2024-03-24T08:20:30.431Z,79.5514
2024-03-24T08:21:33.522Z,78.7816
2024-03-24T08:22:36.804Z,77.3226
2024-03-24T08:23:39.909Z,77.9591
2024-03-24T08:24:42.928Z,79.0443
2024-03-24T08:25:45.896Z,78.3850
2024-03-24T08:26:48.968Z,79.2965
2024-03-24T08:27:51.981Z,79.0817
2024-03-24T08:28:55.007Z,79.4169
2024-03-24T08:29:58.052Z,75.9124
2024-03-24T08:31:01.061Z,76.3363
2024-03-24T08:32:04.074Z,75.6006
2024-03-24T08:33:07.181Z,74.6965
2024-03-24T08:34:10.220Z,74.2919
2024-03-24T08:35:13.221Z,74.7802
2024-03-24T08:36:16.629Z,73.4287
2024-03-24T08:37:19.696Z,74.7862
2024-03-24T08:38:22.869Z,75.9755
2024-03-24T08:39:25.889Z,76.4251
2024-03-24T08:40:31.120Z,77.2916
2024-03-24T08:41:31.911Z,77.1370
2024-03-24T08:42:34.904Z,76.2108
2024-03-24T08:43:37.899Z,76.2084
2024-03-24T08:44:40.958Z,76.3431
2024-03-24T08:45:43.994Z,76.3983
2024-03-24T08:46:47.043Z,76.2765
2024-03-24T08:47:50.058Z,75.7674
2024-03-24T08:48:53.087Z,75.3874
2024-03-24T08:49:56.147Z,76.1022
2024-03-24T08:50:59.126Z,75.9297
2024-03-24T08:52:02.253Z,75.2728
2024-03-24T08:53:05.258Z,75.9100
2024-03-24T08:54:08.567Z,78.1224
2024-03-24T08:55:11.704Z,77.3184
2024-03-24T08:56:14.700Z,77.4258
2024-03-24T08:57:17.736Z,78.7909
2024-03-24T08:58:20.800Z,79.0593
2024-03-24T08:59:23.996Z,78.7310
2024-03-24T09:00:27.190Z,78.4122
2024-03-24T09:01:30.283Z,78.8179
2024-03-24T09:02:33.503Z,77.8363
2024-03-24T09:03:36.600Z,77.9461
2024-03-24T09:04:39.690Z,78.4429
2024-03-24T09:05:42.756Z,77.7576
2024-03-24T09:06:45.769Z,78.9723
2024-03-24T09:07:48.817Z,77.0477
2024-03-24T09:08:51.865Z,76.9921
2024-03-24T09:09:54.893Z,76.9676
2024-03-24T09:10:57.888Z,75.5372
2024-03-24T09:12:01.046Z,75.7020
2024-03-24T09:13:04.060Z,75.2214
2024-03-24T09:14:07.076Z,75.0990
2024-03-24T09:15:10.267Z,75.0849
2024-03-24T09:16:13.239Z,73.8897
2024-03-24T09:17:16.392Z,72.1602
2024-03-24T09:18:19.495Z,71.3531
2024-03-24T09:19:22.548Z,72.0622
2024-03-24T09:20:25.620Z,69.7580
2024-03-24T09:21:28.643Z,69.4744
2024-03-24T09:22:31.657Z,69.7947
2024-03-24T09:23:34.706Z,69.4489
2024-03-24T09:24:37.752Z,66.9871
2024-03-24T09:25:40.772Z,65.3243
2024-03-24T09:26:43.822Z,65.4224
2024-03-24T09:27:46.869Z,63.9410
2024-03-24T09:28:49.889Z,62.4558
2024-03-24T09:29:52.989Z,61.8279
2024-03-24T09:30:56.033Z,63.7196
2024-03-24T09:31:59.075Z,62.7933
2024-03-24T09:33:02.092Z,62.1948
2024-03-24T09:34:05.354Z,64.8337
2024-03-24T09:35:13.272Z,64.3803
2024-03-24T09:36:10.583Z,63.0930
2024-03-24T09:37:13.575Z,61.8552
2024-03-24T09:38:16.856Z,64.6125
2024-03-24T09:39:19.962Z,64.7899
2024-03-24T09:40:23.054Z,64.4482
2024-03-24T09:41:26.096Z,67.6397
2024-03-24T09:42:29.100Z,69.6955
2024-03-24T09:43:32.160Z,69.1999
2024-03-24T09:44:35.234Z,68.3906
2024-03-24T09:45:38.260Z,67.4771
2024-03-24T09:46:41.242Z,66.7413
2024-03-24T09:47:44.301Z,67.8097
2024-03-24T09:48:47.301Z,68.3765
2024-03-24T09:49:50.319Z,68.3753
2024-03-24T09:50:53.393Z,66.0032
2024-03-24T09:51:56.452Z,65.9046
2024-03-24T09:52:59.489Z,64.3127
2024-03-24T09:54:02.553Z,64.0703
2024-03-24T09:55:05.580Z,63.3825
2024-03-24T09:56:08.608Z,63.0484
2024-03-24T09:57:11.663Z,62.6079
2024-03-24T09:58:17.214Z,63.7807
2024-03-24T09:59:17.462Z,63.0899
2024-03-24T10:00:20.724Z,63.8827
2024-03-24T10:01:23.826Z,62.4042
2024-03-24T10:02:26.845Z,61.8624
2024-03-24T10:03:29.922Z,62.7889
2024-03-24T10:04:32.922Z,60.9772
2024-03-24T10:05:35.981Z,61.8363
2024-03-24T10:06:38.996Z,62.5223
2024-03-24T10:07:42.053Z,63.3157
2024-03-24T10:08:45.104Z,64.1247
2024-03-24T10:09:48.187Z,63.4320
2024-03-24T10:10:51.163Z,64.2451
2024-03-24T10:11:54.314Z,66.5025
2024-03-24T10:12:57.334Z,67.8085
2024-03-24T10:14:00.364Z,66.0919
2024-03-24T10:15:03.389Z,65.9524
2024-03-24T10:16:06.400Z,66.5223
2024-03-24T10:17:09.433Z,66.9133
2024-03-24T10:18:09.652Z,66.5271
2024-03-24T10:19:12.697Z,67.1141
2024-03-24T10:20:15.746Z,66.3223
2024-03-24T10:21:18.741Z,67.6669
2024-03-24T10:22:22.090Z,68.5829
2024-03-24T10:23:25.100Z,71.1455
2024-03-24T10:24:28.140Z,71.8244
2024-03-24T10:25:31.198Z,72.4347
2024-03-24T10:26:34.269Z,73.5446
2024-03-24T10:27:37.297Z,74.9899
2024-03-24T10:28:40.313Z,74.5135
2024-03-24T10:29:43.429Z,75.0847
2024-03-24T10:30:46.445Z,75.7460
2024-03-24T10:31:52.731Z,75.8506
2024-03-24T10:32:52.843Z,75.8169
2024-03-24T10:33:55.848Z,75.1900
2024-03-24T10:34:58.858Z,73.9503
2024-03-24T10:36:02.032Z,71.6658
2024-03-24T10:37:05.041Z,69.9079
2024-03-24T10:38:08.189Z,70.9982
2024-03-24T10:39:11.242Z,71.8751
2024-03-24T10:40:14.371Z,70.7808
2024-03-24T10:41:17.420Z,70.7956
2024-03-24T10:42:20.459Z,68.8255
2024-03-24T10:43:23.525Z,68.3587
2024-03-24T10:44:26.502Z,66.3386
2024-03-24T10:45:29.542Z,67.1370
2024-03-24T10:46:32.579Z,68.8331
2024-03-24T10:47:35.712Z,68.2846
2024-03-24T10:48:38.730Z,69.0857
2024-03-24T10:49:41.789Z,69.4933
2024-03-24T10:50:44.814Z,68.2397
2024-03-24T10:51:47.855Z,66.8781
2024-03-24T10:52:53.250Z,63.9424
2024-03-24T10:53:53.318Z,66.6715
2024-03-24T10:54:56.348Z,62.8523
2024-03-24T10:55:59.379Z,63.4195
2024-03-24T10:57:02.394Z,65.8837
2024-03-24T10:58:05.413Z,63.7875
2024-03-24T10:59:11.307Z,64.4390
2024-03-24T11:00:08.717Z,66.8672
2024-03-24T11:01:11.999Z,65.9775
2024-03-24T11:02:15.077Z,68.1458
2024-03-24T11:03:18.131Z,68.9443
2024-03-24T11:04:21.149Z,70.8419
2024-03-24T11:05:24.160Z,72.8550
2024-03-24T11:06:27.180Z,73.5427
2024-03-24T11:07:30.246Z,78.0369
2024-03-24T11:08:33.269Z,79.9253
2024-03-24T11:09:36.289Z,81.9566
2024-03-24T11:10:39.346Z,82.7869
2024-03-24T11:11:42.478Z,84.0877
2024-03-24T11:12:45.609Z,85.1060
2024-03-24T11:13:48.778Z,86.5349
2024-03-24T11:14:51.880Z,86.7979
2024-03-24T11:15:54.904Z,86.5714
2024-03-24T11:16:57.408Z,86.8033
2024-03-24T11:17:59.971Z,85.3230
2024-03-24T11:19:02.420Z,85.8523
2024-03-24T11:20:04.886Z,84.4777
2024-03-24T11:21:07.347Z,82.2776
2024-03-24T11:22:09.772Z,80.3309
2024-03-24T11:23:12.292Z,82.3050
2024-03-24T11:24:14.747Z,83.3613
2024-03-24T11:25:17.350Z,80.6130
2024-03-24T11:26:19.898Z,80.4601
2024-03-24T11:27:22.926Z,80.7908
2024-03-24T11:28:23.083Z,78.5030
2024-03-24T11:29:26.177Z,81.2524
2024-03-24T11:30:29.177Z,78.8882
2024-03-24T11:31:32.167Z,76.0953
2024-03-24T11:32:35.178Z,78.4898
2024-03-24T11:33:38.220Z,76.2668
2024-03-24T11:34:41.248Z,77.2923
2024-03-24T11:35:44.340Z,77.1854
2024-03-24T11:36:47.375Z,78.7706
2024-03-24T11:37:50.445Z,78.2281
2024-03-24T11:38:53.418Z,76.5686
2024-03-24T11:39:56.495Z,76.8889
2024-03-24T11:40:59.539Z,75.5477
2024-03-24T11:42:02.592Z,74.5663
2024-03-24T11:43:05.619Z,71.4383
2024-03-24T11:44:08.645Z,73.1105
2024-03-24T11:45:11.727Z,70.1127
2024-03-24T11:46:14.717Z,69.7699
2024-03-24T11:47:17.778Z,68.6219
2024-03-24T11:48:20.829Z,69.8801
2024-03-24T11:49:23.849Z,67.6186
2024-03-24T11:50:27.239Z,66.6515
2024-03-24T11:51:30.262Z,66.4839
2024-03-24T11:52:33.366Z,67.3021
2024-03-24T11:53:36.395Z,67.8292
2024-03-24T11:54:39.420Z,66.9646
2024-03-24T11:55:42.419Z,67.8776
2024-03-24T11:56:45.465Z,65.7499
2024-03-24T11:57:48.529Z,64.4886
2024-03-24T11:58:51.540Z,66.5969
2024-03-24T11:59:54.576Z,66.1570
2024-03-24T12:00:57.628Z,66.9674
2024-03-24T12:02:00.662Z,69.5250
2024-03-24T12:03:03.747Z,66.4073
2024-03-24T12:04:06.736Z,65.3012
2024-03-24T12:05:09.748Z,66.6995
2024-03-24T12:06:12.798Z,66.0979
2024-03-24T12:07:15.898Z,68.3804
2024-03-24T12:08:18.908Z,66.5815
2024-03-24T12:09:21.921Z,67.6321
2024-03-24T12:10:24.987Z,65.4543
2024-03-24T12:11:28.027Z,64.7119
2024-03-24T12:12:31.067Z,65.5929
2024-03-24T12:13:34.116Z,65.4884
2024-03-24T12:14:37.146Z,63.3479
2024-03-24T12:15:40.171Z,64.7525
2024-03-24T12:16:43.247Z,65.3760
2024-03-24T12:17:46.287Z,65.0281
2024-03-24T12:18:49.306Z,64.1181
2024-03-24T12:19:52.372Z,63.2065
2024-03-24T12:20:55.504Z,60.8309
2024-03-24T12:21:58.570Z,59.7667
2024-03-24T12:23:01.606Z,61.2835
2024-03-24T12:24:04.826Z,59.3464
2024-03-24T12:25:07.824Z,58.7636
2024-03-24T12:26:10.834Z,61.3044
2024-03-24T12:27:13.940Z,61.1691
2024-03-24T12:28:16.985Z,60.3043
2024-03-24T12:29:20.020Z,59.6824
2024-03-24T12:30:23.074Z,57.5765
2024-03-24T12:31:26.426Z,58.0187
2024-03-24T12:32:29.461Z,57.7957
2024-03-24T12:33:32.499Z,58.8373
2024-03-24T12:34:35.540Z,60.0943
2024-03-24T12:35:38.588Z,58.9633
2024-03-24T12:36:41.618Z,61.1291
2024-03-24T12:37:44.698Z,60.3569
2024-03-24T12:38:47.719Z,61.8131
2024-03-24T12:39:50.736Z,60.7363
2024-03-24T12:40:55.245Z,62.0060